sensor_id;sensor_type;location;lat;lon;timestamp;P1;durP1;ratioP1;P2;durP2;ratioP2
50769;SDS011;36740;48.698;11.472;2022-07-29T00:02:29;4.88;;;2.53;;
50769;SDS011;36740;48.698;11.472;2022-07-29T00:05:17;3.30;;;2.63;;
50769;SDS011;36740;48.698;11.472;2022-07-29T00:08:02;6.47;;;2.47;;
50769;SDS011;36740;48.698;11.472;2022-07-29T00:10:48;4.55;;;3.05;;
50769;SDS011;36740;48.698;11.472;2022-07-29T00:13:34;7.43;;;3.00;;
50769;SDS011;36740;48.698;11.472;2022-07-29T00:16:19;4.60;;;2.45;;
50769;SDS011;36740;48.698;11.472;2022-07-29T00:19:05;8.85;;;2.83;;
50769;SDS011;36740;48.698;11.472;2022-07-29T00:21:51;4.97;;;2.92;;
50769;SDS011;36740;48.698;11.472;2022-07-29T00:24:37;5.25;;;3.67;;
50769;SDS011;36740;48.698;11.472;2022-07-29T00:27:22;4.85;;;3.45;;
50769;SDS011;36740;48.698;11.472;2022-07-29T00:30:08;3.75;;;2.30;;
50769;SDS011;36740;48.698;11.472;2022-07-29T00:32:54;5.82;;;2.85;;
50769;SDS011;36740;48.698;11.472;2022-07-29T00:35:39;3.00;;;2.17;;
50769;SDS011;36740;48.698;11.472;2022-07-29T00:38:31;5.30;;;3.20;;
50769;SDS011;36740;48.698;11.472;2022-07-29T00:41:17;7.43;;;2.97;;
50769;SDS011;36740;48.698;11.472;2022-07-29T00:44:05;7.28;;;4.25;;
50769;SDS011;36740;48.698;11.472;2022-07-29T00:46:51;7.55;;;4.22;;
50769;SDS011;36740;48.698;11.472;2022-07-29T00:49:37;6.85;;;3.70;;
50769;SDS011;36740;48.698;11.472;2022-07-29T00:52:24;15.23;;;3.92;;
50769;SDS011;36740;48.698;11.472;2022-07-29T00:55:10;6.30;;;4.65;;
50769;SDS011;36740;48.698;11.472;2022-07-29T00:57:56;10.80;;;4.35;;
50769;SDS011;36740;48.698;11.472;2022-07-29T01:00:43;6.82;;;3.33;;
50769;SDS011;36740;48.698;11.472;2022-07-29T01:03:29;5.50;;;3.33;;
50769;SDS011;36740;48.698;11.472;2022-07-29T01:06:15;7.43;;;4.22;;
50769;SDS011;36740;48.698;11.472;2022-07-29T01:09:01;6.30;;;4.13;;
50769;SDS011;36740;48.698;11.472;2022-07-29T01:11:47;7.00;;;3.20;;
50769;SDS011;36740;48.698;11.472;2022-07-29T01:14:33;7.82;;;4.13;;
50769;SDS011;36740;48.698;11.472;2022-07-29T01:17:26;6.78;;;4.05;;
50769;SDS011;36740;48.698;11.472;2022-07-29T01:20:18;6.63;;;3.85;;
50769;SDS011;36740;48.698;11.472;2022-07-29T01:28:52;5.68;;;4.40;;
50769;SDS011;36740;48.698;11.472;2022-07-29T01:40:30;5.53;;;3.35;;
50769;SDS011;36740;48.698;11.472;2022-07-29T01:43:20;6.35;;;4.10;;
50769;SDS011;36740;48.698;11.472;2022-07-29T01:46:08;6.63;;;4.53;;
50769;SDS011;36740;48.698;11.472;2022-07-29T01:48:57;5.43;;;3.50;;
50769;SDS011;36740;48.698;11.472;2022-07-29T01:51:57;6.63;;;3.78;;
50769;SDS011;36740;48.698;11.472;2022-07-29T01:54:53;6.80;;;4.25;;
50769;SDS011;36740;48.698;11.472;2022-07-29T01:57:42;10.45;;;4.20;;
50769;SDS011;36740;48.698;11.472;2022-07-29T02:00:28;8.65;;;4.35;;
50769;SDS011;36740;48.698;11.472;2022-07-29T02:03:15;8.55;;;4.35;;
50769;SDS011;36740;48.698;11.472;2022-07-29T02:06:03;6.55;;;3.63;;
50769;SDS011;36740;48.698;11.472;2022-07-29T02:08:49;6.80;;;3.83;;
50769;SDS011;36740;48.698;11.472;2022-07-29T02:11:36;6.05;;;3.30;;
50769;SDS011;36740;48.698;11.472;2022-07-29T02:14:23;5.30;;;3.80;;
50769;SDS011;36740;48.698;11.472;2022-07-29T02:17:09;4.47;;;2.97;;
50769;SDS011;36740;48.698;11.472;2022-07-29T02:19:57;7.68;;;4.32;;
50769;SDS011;36740;48.698;11.472;2022-07-29T02:22:44;6.63;;;4.32;;
50769;SDS011;36740;48.698;11.472;2022-07-29T02:25:30;7.32;;;4.22;;
50769;SDS011;36740;48.698;11.472;2022-07-29T02:28:16;7.00;;;3.60;;
50769;SDS011;36740;48.698;11.472;2022-07-29T02:31:02;5.43;;;3.85;;
50769;SDS011;36740;48.698;11.472;2022-07-29T02:33:48;7.22;;;4.15;;
50769;SDS011;36740;48.698;11.472;2022-07-29T02:36:35;6.57;;;3.63;;
50769;SDS011;36740;48.698;11.472;2022-07-29T02:39:22;5.10;;;3.75;;
50769;SDS011;36740;48.698;11.472;2022-07-29T02:42:10;5.53;;;3.42;;
50769;SDS011;36740;48.698;11.472;2022-07-29T02:44:56;5.60;;;3.70;;
50769;SDS011;36740;48.698;11.472;2022-07-29T02:47:43;8.13;;;3.38;;
50769;SDS011;36740;48.698;11.472;2022-07-29T02:50:32;6.47;;;3.50;;
50769;SDS011;36740;48.698;11.472;2022-07-29T02:53:20;7.90;;;3.88;;
50769;SDS011;36740;48.698;11.472;2022-07-29T02:56:09;8.82;;;3.30;;
50769;SDS011;36740;48.698;11.472;2022-07-29T02:58:57;11.93;;;4.65;;
50769;SDS011;36740;48.698;11.472;2022-07-29T03:01:43;11.25;;;5.18;;
50769;SDS011;36740;48.698;11.472;2022-07-29T03:04:29;5.43;;;4.40;;
50769;SDS011;36740;48.698;11.472;2022-07-29T03:07:18;5.82;;;3.35;;
50769;SDS011;36740;48.698;11.472;2022-07-29T03:10:04;6.20;;;3.88;;
50769;SDS011;36740;48.698;11.472;2022-07-29T03:12:51;4.65;;;3.50;;
50769;SDS011;36740;48.698;11.472;2022-07-29T03:15:37;8.90;;;5.10;;
50769;SDS011;36740;48.698;11.472;2022-07-29T03:18:23;5.05;;;3.22;;
50769;SDS011;36740;48.698;11.472;2022-07-29T03:21:09;9.85;;;4.93;;
50769;SDS011;36740;48.698;11.472;2022-07-29T03:23:55;6.65;;;3.35;;
50769;SDS011;36740;48.698;11.472;2022-07-29T03:26:40;5.07;;;3.17;;
50769;SDS011;36740;48.698;11.472;2022-07-29T03:29:26;4.95;;;3.55;;
50769;SDS011;36740;48.698;11.472;2022-07-29T03:32:12;4.47;;;3.03;;
50769;SDS011;36740;48.698;11.472;2022-07-29T03:34:58;3.25;;;2.92;;
50769;SDS011;36740;48.698;11.472;2022-07-29T03:37:44;6.85;;;2.58;;
50769;SDS011;36740;48.698;11.472;2022-07-29T03:40:40;3.50;;;2.80;;
50769;SDS011;36740;48.698;11.472;2022-07-29T03:43:26;6.70;;;3.22;;
50769;SDS011;36740;48.698;11.472;2022-07-29T03:46:13;4.53;;;3.22;;
50769;SDS011;36740;48.698;11.472;2022-07-29T03:48:59;7.88;;;2.80;;
50769;SDS011;36740;48.698;11.472;2022-07-29T03:51:45;4.40;;;2.47;;
50769;SDS011;36740;48.698;11.472;2022-07-29T03:54:31;4.50;;;2.90;;
50769;SDS011;36740;48.698;11.472;2022-07-29T03:57:17;6.05;;;3.33;;
50769;SDS011;36740;48.698;11.472;2022-07-29T04:00:04;4.40;;;2.90;;
50769;SDS011;36740;48.698;11.472;2022-07-29T04:02:50;4.30;;;2.70;;
50769;SDS011;36740;48.698;11.472;2022-07-29T04:05:36;7.50;;;3.85;;
50769;SDS011;36740;48.698;11.472;2022-07-29T04:08:22;6.80;;;4.28;;
50769;SDS011;36740;48.698;11.472;2022-07-29T04:11:07;8.07;;;3.75;;
50769;SDS011;36740;48.698;11.472;2022-07-29T04:13:53;5.10;;;2.65;;
50769;SDS011;36740;48.698;11.472;2022-07-29T04:16:39;5.97;;;2.88;;
50769;SDS011;36740;48.698;11.472;2022-07-29T04:19:24;4.40;;;3.20;;
50769;SDS011;36740;48.698;11.472;2022-07-29T04:22:10;5.15;;;2.92;;
50769;SDS011;36740;48.698;11.472;2022-07-29T04:24:56;7.97;;;4.15;;
50769;SDS011;36740;48.698;11.472;2022-07-29T04:27:41;3.28;;;2.85;;
50769;SDS011;36740;48.698;11.472;2022-07-29T04:30:45;4.78;;;3.45;;
50769;SDS011;36740;48.698;11.472;2022-07-29T04:33:31;5.78;;;3.72;;
50769;SDS011;36740;48.698;11.472;2022-07-29T04:36:16;5.00;;;3.30;;
50769;SDS011;36740;48.698;11.472;2022-07-29T04:39:02;5.55;;;3.03;;
50769;SDS011;36740;48.698;11.472;2022-07-29T04:41:48;5.40;;;3.65;;
50769;SDS011;36740;48.698;11.472;2022-07-29T04:44:34;4.78;;;3.60;;
50769;SDS011;36740;48.698;11.472;2022-07-29T04:47:20;5.18;;;3.45;;
50769;SDS011;36740;48.698;11.472;2022-07-29T04:50:06;5.85;;;3.58;;
50769;SDS011;36740;48.698;11.472;2022-07-29T04:52:52;4.55;;;2.97;;
50769;SDS011;36740;48.698;11.472;2022-07-29T04:55:38;4.72;;;2.67;;
50769;SDS011;36740;48.698;11.472;2022-07-29T04:58:23;6.53;;;3.30;;
50769;SDS011;36740;48.698;11.472;2022-07-29T05:01:09;5.22;;;3.78;;
50769;SDS011;36740;48.698;11.472;2022-07-29T05:03:55;5.22;;;3.60;;
50769;SDS011;36740;48.698;11.472;2022-07-29T05:06:40;6.05;;;3.70;;
50769;SDS011;36740;48.698;11.472;2022-07-29T05:09:26;10.88;;;3.25;;
50769;SDS011;36740;48.698;11.472;2022-07-29T05:12:12;6.05;;;3.50;;
50769;SDS011;36740;48.698;11.472;2022-07-29T05:14:57;7.05;;;3.50;;
50769;SDS011;36740;48.698;11.472;2022-07-29T05:17:43;6.78;;;3.50;;
50769;SDS011;36740;48.698;11.472;2022-07-29T05:20:29;4.95;;;3.42;;
50769;SDS011;36740;48.698;11.472;2022-07-29T05:23:15;10.15;;;3.28;;
50769;SDS011;36740;48.698;11.472;2022-07-29T05:26:01;5.15;;;3.75;;
50769;SDS011;36740;48.698;11.472;2022-07-29T05:28:47;10.88;;;4.40;;
50769;SDS011;36740;48.698;11.472;2022-07-29T05:31:33;5.22;;;3.33;;
50769;SDS011;36740;48.698;11.472;2022-07-29T05:34:19;4.68;;;3.50;;
50769;SDS011;36740;48.698;11.472;2022-07-29T05:37:04;4.20;;;3.20;;
50769;SDS011;36740;48.698;11.472;2022-07-29T05:39:50;5.13;;;3.22;;
50769;SDS011;36740;48.698;11.472;2022-07-29T05:42:36;4.50;;;3.03;;
50769;SDS011;36740;48.698;11.472;2022-07-29T05:45:21;5.10;;;3.60;;
50769;SDS011;36740;48.698;11.472;2022-07-29T05:48:08;9.18;;;3.75;;
50769;SDS011;36740;48.698;11.472;2022-07-29T05:50:54;5.75;;;3.88;;
50769;SDS011;36740;48.698;11.472;2022-07-29T05:53:40;12.45;;;4.72;;
50769;SDS011;36740;48.698;11.472;2022-07-29T05:56:25;4.57;;;3.00;;
50769;SDS011;36740;48.698;11.472;2022-07-29T05:59:11;5.00;;;2.65;;
50769;SDS011;36740;48.698;11.472;2022-07-29T06:01:57;4.65;;;3.08;;
50769;SDS011;36740;48.698;11.472;2022-07-29T06:04:43;4.15;;;2.90;;
50769;SDS011;36740;48.698;11.472;2022-07-29T06:07:29;3.35;;;2.38;;
50769;SDS011;36740;48.698;11.472;2022-07-29T06:10:14;2.95;;;2.20;;
50769;SDS011;36740;48.698;11.472;2022-07-29T06:13:00;6.30;;;2.97;;
50769;SDS011;36740;48.698;11.472;2022-07-29T06:15:46;8.23;;;3.03;;
50769;SDS011;36740;48.698;11.472;2022-07-29T06:18:31;7.45;;;2.88;;
50769;SDS011;36740;48.698;11.472;2022-07-29T06:21:17;5.63;;;3.03;;
50769;SDS011;36740;48.698;11.472;2022-07-29T06:24:03;4.95;;;2.70;;
50769;SDS011;36740;48.698;11.472;2022-07-29T06:26:48;7.28;;;3.45;;
50769;SDS011;36740;48.698;11.472;2022-07-29T06:29:34;4.43;;;2.67;;
50769;SDS011;36740;48.698;11.472;2022-07-29T06:32:20;4.32;;;2.20;;
50769;SDS011;36740;48.698;11.472;2022-07-29T06:35:07;3.30;;;2.42;;
50769;SDS011;36740;48.698;11.472;2022-07-29T06:37:52;5.85;;;3.17;;
50769;SDS011;36740;48.698;11.472;2022-07-29T06:40:45;5.10;;;2.72;;
50769;SDS011;36740;48.698;11.472;2022-07-29T06:43:46;4.90;;;2.88;;
50769;SDS011;36740;48.698;11.472;2022-07-29T06:46:32;5.95;;;3.28;;
50769;SDS011;36740;48.698;11.472;2022-07-29T06:49:18;4.28;;;2.55;;
50769;SDS011;36740;48.698;11.472;2022-07-29T06:52:04;4.22;;;2.72;;
50769;SDS011;36740;48.698;11.472;2022-07-29T06:54:49;5.15;;;2.75;;
50769;SDS011;36740;48.698;11.472;2022-07-29T06:57:35;3.25;;;2.53;;
50769;SDS011;36740;48.698;11.472;2022-07-29T07:00:21;3.70;;;2.67;;
50769;SDS011;36740;48.698;11.472;2022-07-29T07:03:06;5.40;;;2.10;;
50769;SDS011;36740;48.698;11.472;2022-07-29T07:05:52;5.30;;;2.42;;
50769;SDS011;36740;48.698;11.472;2022-07-29T07:08:39;3.08;;;2.42;;
50769;SDS011;36740;48.698;11.472;2022-07-29T07:11:24;5.47;;;2.58;;
50769;SDS011;36740;48.698;11.472;2022-07-29T07:14:10;8.65;;;2.95;;
50769;SDS011;36740;48.698;11.472;2022-07-29T07:16:56;4.35;;;3.22;;
50769;SDS011;36740;48.698;11.472;2022-07-29T07:19:41;5.80;;;2.80;;
50769;SDS011;36740;48.698;11.472;2022-07-29T07:22:27;3.10;;;1.90;;
50769;SDS011;36740;48.698;11.472;2022-07-29T07:25:13;5.93;;;2.08;;
50769;SDS011;36740;48.698;11.472;2022-07-29T07:27:58;3.95;;;2.25;;
50769;SDS011;36740;48.698;11.472;2022-07-29T07:30:44;2.83;;;2.03;;
50769;SDS011;36740;48.698;11.472;2022-07-29T07:33:30;7.70;;;3.15;;
50769;SDS011;36740;48.698;11.472;2022-07-29T07:36:15;4.03;;;2.83;;
50769;SDS011;36740;48.698;11.472;2022-07-29T07:39:01;5.90;;;3.35;;
50769;SDS011;36740;48.698;11.472;2022-07-29T07:41:47;4.05;;;2.50;;
50769;SDS011;36740;48.698;11.472;2022-07-29T07:44:33;4.82;;;2.55;;
50769;SDS011;36740;48.698;11.472;2022-07-29T07:47:19;2.60;;;1.95;;
50769;SDS011;36740;48.698;11.472;2022-07-29T07:50:09;5.85;;;2.30;;
50769;SDS011;36740;48.698;11.472;2022-07-29T07:52:55;6.55;;;2.13;;
50769;SDS011;36740;48.698;11.472;2022-07-29T07:55:44;3.50;;;2.33;;
50769;SDS011;36740;48.698;11.472;2022-07-29T07:58:30;2.55;;;1.80;;
50769;SDS011;36740;48.698;11.472;2022-07-29T08:01:16;6.47;;;2.10;;
50769;SDS011;36740;48.698;11.472;2022-07-29T08:04:04;5.82;;;3.00;;
50769;SDS011;36740;48.698;11.472;2022-07-29T08:06:49;4.32;;;1.85;;
50769;SDS011;36740;48.698;11.472;2022-07-29T08:09:36;2.58;;;1.55;;
50769;SDS011;36740;48.698;11.472;2022-07-29T08:12:21;3.40;;;1.50;;
50769;SDS011;36740;48.698;11.472;2022-07-29T08:15:07;2.53;;;1.85;;
50769;SDS011;36740;48.698;11.472;2022-07-29T08:17:53;3.55;;;1.88;;
50769;SDS011;36740;48.698;11.472;2022-07-29T08:20:39;1.77;;;1.08;;
50769;SDS011;36740;48.698;11.472;2022-07-29T08:23:25;2.60;;;1.50;;
50769;SDS011;36740;48.698;11.472;2022-07-29T08:26:14;3.67;;;2.15;;
50769;SDS011;36740;48.698;11.472;2022-07-29T08:29:00;2.90;;;1.83;;
50769;SDS011;36740;48.698;11.472;2022-07-29T08:31:46;4.10;;;2.35;;
50769;SDS011;36740;48.698;11.472;2022-07-29T08:34:32;2.47;;;1.85;;
50769;SDS011;36740;48.698;11.472;2022-07-29T08:37:17;5.40;;;1.88;;
50769;SDS011;36740;48.698;11.472;2022-07-29T08:40:06;3.17;;;2.03;;
50769;SDS011;36740;48.698;11.472;2022-07-29T08:42:54;5.60;;;2.80;;
50769;SDS011;36740;48.698;11.472;2022-07-29T08:45:49;2.40;;;1.52;;
50769;SDS011;36740;48.698;11.472;2022-07-29T08:48:53;4.38;;;2.65;;
50769;SDS011;36740;48.698;11.472;2022-07-29T08:51:47;2.13;;;1.50;;
50769;SDS011;36740;48.698;11.472;2022-07-29T08:54:33;4.47;;;2.22;;
50769;SDS011;36740;48.698;11.472;2022-07-29T08:57:19;4.05;;;2.45;;
50769;SDS011;36740;48.698;11.472;2022-07-29T09:00:23;6.78;;;1.88;;
50769;SDS011;36740;48.698;11.472;2022-07-29T09:03:12;4.38;;;1.95;;
50769;SDS011;36740;48.698;11.472;2022-07-29T09:05:59;4.18;;;1.65;;
50769;SDS011;36740;48.698;11.472;2022-07-29T09:08:51;3.58;;;2.15;;
50769;SDS011;36740;48.698;11.472;2022-07-29T09:11:41;3.67;;;2.47;;
50769;SDS011;36740;48.698;11.472;2022-07-29T09:14:30;4.53;;;2.47;;
50769;SDS011;36740;48.698;11.472;2022-07-29T09:17:16;4.57;;;2.72;;
50769;SDS011;36740;48.698;11.472;2022-07-29T09:20:13;4.22;;;2.72;;
50769;SDS011;36740;48.698;11.472;2022-07-29T09:23:07;4.68;;;2.10;;
50769;SDS011;36740;48.698;11.472;2022-07-29T09:25:53;4.68;;;2.85;;
50769;SDS011;36740;48.698;11.472;2022-07-29T09:28:41;6.28;;;2.78;;
50769;SDS011;36740;48.698;11.472;2022-07-29T09:31:37;4.32;;;2.40;;
50769;SDS011;36740;48.698;11.472;2022-07-29T09:34:27;3.97;;;2.75;;
50769;SDS011;36740;48.698;11.472;2022-07-29T09:37:34;3.70;;;2.63;;
50769;SDS011;36740;48.698;11.472;2022-07-29T09:40:23;2.65;;;2.15;;
50769;SDS011;36740;48.698;11.472;2022-07-29T09:43:12;3.55;;;1.92;;
50769;SDS011;36740;48.698;11.472;2022-07-29T09:46:11;2.50;;;1.92;;
50769;SDS011;36740;48.698;11.472;2022-07-29T09:49:07;3.35;;;2.33;;
50769;SDS011;36740;48.698;11.472;2022-07-29T09:52:04;3.10;;;2.45;;
50769;SDS011;36740;48.698;11.472;2022-07-29T09:54:50;5.07;;;1.98;;
50769;SDS011;36740;48.698;11.472;2022-07-29T09:57:36;3.15;;;1.98;;
50769;SDS011;36740;48.698;11.472;2022-07-29T10:00:22;4.78;;;2.42;;
50769;SDS011;36740;48.698;11.472;2022-07-29T10:03:09;5.88;;;2.88;;
50769;SDS011;36740;48.698;11.472;2022-07-29T10:06:08;4.20;;;2.30;;
50769;SDS011;36740;48.698;11.472;2022-07-29T10:08:54;4.03;;;1.70;;
50769;SDS011;36740;48.698;11.472;2022-07-29T10:11:40;2.78;;;1.83;;
50769;SDS011;36740;48.698;11.472;2022-07-29T10:14:25;2.30;;;1.80;;
50769;SDS011;36740;48.698;11.472;2022-07-29T10:17:11;2.45;;;1.85;;
50769;SDS011;36740;48.698;11.472;2022-07-29T10:19:57;4.70;;;2.60;;
50769;SDS011;36740;48.698;11.472;2022-07-29T10:22:51;4.97;;;2.45;;
50769;SDS011;36740;48.698;11.472;2022-07-29T10:25:37;5.97;;;2.97;;
50769;SDS011;36740;48.698;11.472;2022-07-29T10:28:23;2.92;;;1.77;;
50769;SDS011;36740;48.698;11.472;2022-07-29T10:31:14;4.45;;;2.88;;
50769;SDS011;36740;48.698;11.472;2022-07-29T10:37:18;2.97;;;1.60;;
50769;SDS011;36740;48.698;11.472;2022-07-29T10:40:22;2.63;;;1.33;;
50769;SDS011;36740;48.698;11.472;2022-07-29T10:43:31;2.30;;;1.67;;
50769;SDS011;36740;48.698;11.472;2022-07-29T10:46:21;5.63;;;2.28;;
50769;SDS011;36740;48.698;11.472;2022-07-29T10:57:27;2.22;;;1.60;;
50769;SDS011;36740;48.698;11.472;2022-07-29T11:00:25;3.85;;;2.38;;
50769;SDS011;36740;48.698;11.472;2022-07-29T11:03:41;3.17;;;2.17;;
50769;SDS011;36740;48.698;11.472;2022-07-29T11:06:16;2.78;;;1.85;;
50769;SDS011;36740;48.698;11.472;2022-07-29T11:09:15;2.83;;;2.30;;
50769;SDS011;36740;48.698;11.472;2022-07-29T11:12:02;4.68;;;2.72;;
50769;SDS011;36740;48.698;11.472;2022-07-29T11:14:55;2.67;;;1.92;;
50769;SDS011;36740;48.698;11.472;2022-07-29T11:18:14;7.78;;;2.35;;
50769;SDS011;36740;48.698;11.472;2022-07-29T11:20:53;1.95;;;1.63;;
50769;SDS011;36740;48.698;11.472;2022-07-29T11:23:39;4.32;;;2.42;;
50769;SDS011;36740;48.698;11.472;2022-07-29T11:26:27;4.30;;;1.80;;
50769;SDS011;36740;48.698;11.472;2022-07-29T11:29:16;5.03;;;2.28;;
50769;SDS011;36740;48.698;11.472;2022-07-29T11:32:08;5.05;;;2.42;;
50769;SDS011;36740;48.698;11.472;2022-07-29T11:38:25;1.95;;;1.50;;
50769;SDS011;36740;48.698;11.472;2022-07-29T11:41:21;4.22;;;2.30;;
50769;SDS011;36740;48.698;11.472;2022-07-29T11:44:09;3.33;;;1.85;;
50769;SDS011;36740;48.698;11.472;2022-07-29T11:46:55;5.75;;;2.10;;
50769;SDS011;36740;48.698;11.472;2022-07-29T11:49:41;3.08;;;1.67;;
50769;SDS011;36740;48.698;11.472;2022-07-29T11:52:39;2.47;;;1.55;;
50769;SDS011;36740;48.698;11.472;2022-07-29T11:55:54;4.93;;;1.77;;
50769;SDS011;36740;48.698;11.472;2022-07-29T11:58:41;3.85;;;1.90;;
50769;SDS011;36740;48.698;11.472;2022-07-29T12:01:27;4.30;;;1.65;;
50769;SDS011;36740;48.698;11.472;2022-07-29T12:04:13;6.22;;;2.53;;
50769;SDS011;36740;48.698;11.472;2022-07-29T12:06:59;4.68;;;2.38;;
50769;SDS011;36740;48.698;11.472;2022-07-29T12:09:51;3.25;;;1.70;;
50769;SDS011;36740;48.698;11.472;2022-07-29T12:12:37;8.68;;;2.47;;
50769;SDS011;36740;48.698;11.472;2022-07-29T12:15:24;2.47;;;1.88;;
50769;SDS011;36740;48.698;11.472;2022-07-29T12:18:15;4.70;;;2.47;;
50769;SDS011;36740;48.698;11.472;2022-07-29T12:21:02;3.53;;;2.50;;
50769;SDS011;36740;48.698;11.472;2022-07-29T12:23:55;3.22;;;1.95;;
50769;SDS011;36740;48.698;11.472;2022-07-29T12:26:52;4.40;;;2.63;;
50769;SDS011;36740;48.698;11.472;2022-07-29T12:29:39;4.38;;;2.22;;
50769;SDS011;36740;48.698;11.472;2022-07-29T12:32:30;5.43;;;2.05;;
50769;SDS011;36740;48.698;11.472;2022-07-29T12:35:19;6.40;;;1.70;;
50769;SDS011;36740;48.698;11.472;2022-07-29T12:38:06;4.80;;;2.65;;
50769;SDS011;36740;48.698;11.472;2022-07-29T12:40:52;3.83;;;2.05;;
50769;SDS011;36740;48.698;11.472;2022-07-29T12:43:45;3.78;;;2.28;;
50769;SDS011;36740;48.698;11.472;2022-07-29T12:46:36;3.40;;;1.85;;
50769;SDS011;36740;48.698;11.472;2022-07-29T12:49:22;4.57;;;2.78;;
50769;SDS011;36740;48.698;11.472;2022-07-29T12:52:24;3.75;;;2.15;;
50769;SDS011;36740;48.698;11.472;2022-07-29T12:55:10;6.03;;;2.80;;
50769;SDS011;36740;48.698;11.472;2022-07-29T12:57:56;3.25;;;2.17;;
50769;SDS011;36740;48.698;11.472;2022-07-29T13:00:42;4.07;;;2.10;;
50769;SDS011;36740;48.698;11.472;2022-07-29T13:03:28;5.82;;;2.83;;
50769;SDS011;36740;48.698;11.472;2022-07-29T13:06:27;8.68;;;3.58;;
50769;SDS011;36740;48.698;11.472;2022-07-29T13:09:14;3.20;;;2.03;;
50769;SDS011;36740;48.698;11.472;2022-07-29T13:11:59;7.93;;;2.80;;
50769;SDS011;36740;48.698;11.472;2022-07-29T13:14:50;4.75;;;2.67;;
50769;SDS011;36740;48.698;11.472;2022-07-29T13:17:40;2.47;;;1.95;;
50769;SDS011;36740;48.698;11.472;2022-07-29T13:23:12;3.63;;;2.50;;
50769;SDS011;36740;48.698;11.472;2022-07-29T13:26:07;7.45;;;2.63;;
50769;SDS011;36740;48.698;11.472;2022-07-29T13:28:53;6.63;;;2.75;;
50769;SDS011;36740;48.698;11.472;2022-07-29T13:31:39;3.55;;;2.08;;
50769;SDS011;36740;48.698;11.472;2022-07-29T13:34:25;5.95;;;3.30;;
50769;SDS011;36740;48.698;11.472;2022-07-29T13:37:11;8.55;;;3.42;;
50769;SDS011;36740;48.698;11.472;2022-07-29T13:39:57;3.78;;;2.42;;
50769;SDS011;36740;48.698;11.472;2022-07-29T13:42:42;3.75;;;2.47;;
50769;SDS011;36740;48.698;11.472;2022-07-29T13:45:28;3.03;;;2.50;;
50769;SDS011;36740;48.698;11.472;2022-07-29T13:48:14;4.25;;;3.05;;
50769;SDS011;36740;48.698;11.472;2022-07-29T13:51:00;5.20;;;3.40;;
50769;SDS011;36740;48.698;11.472;2022-07-29T13:53:46;3.17;;;2.70;;
50769;SDS011;36740;48.698;11.472;2022-07-29T13:56:31;6.45;;;3.15;;
50769;SDS011;36740;48.698;11.472;2022-07-29T13:59:17;6.90;;;3.22;;
50769;SDS011;36740;48.698;11.472;2022-07-29T14:02:02;6.60;;;3.75;;
50769;SDS011;36740;48.698;11.472;2022-07-29T14:04:48;5.50;;;3.35;;
50769;SDS011;36740;48.698;11.472;2022-07-29T14:07:38;5.00;;;2.92;;
50769;SDS011;36740;48.698;11.472;2022-07-29T14:10:24;5.45;;;3.20;;
50769;SDS011;36740;48.698;11.472;2022-07-29T14:13:09;3.78;;;2.42;;
50769;SDS011;36740;48.698;11.472;2022-07-29T14:15:55;5.15;;;3.05;;
50769;SDS011;36740;48.698;11.472;2022-07-29T14:18:41;6.63;;;3.05;;
50769;SDS011;36740;48.698;11.472;2022-07-29T14:21:27;9.70;;;3.33;;
50769;SDS011;36740;48.698;11.472;2022-07-29T14:24:12;4.68;;;3.22;;
50769;SDS011;36740;48.698;11.472;2022-07-29T14:26:58;4.20;;;2.90;;
50769;SDS011;36740;48.698;11.472;2022-07-29T14:29:44;6.45;;;3.97;;
50769;SDS011;36740;48.698;11.472;2022-07-29T14:32:31;5.93;;;3.30;;
50769;SDS011;36740;48.698;11.472;2022-07-29T14:35:17;4.90;;;2.97;;
50769;SDS011;36740;48.698;11.472;2022-07-29T14:38:03;6.82;;;3.45;;
50769;SDS011;36740;48.698;11.472;2022-07-29T14:40:48;6.15;;;3.35;;
50769;SDS011;36740;48.698;11.472;2022-07-29T14:43:34;2.80;;;2.45;;
50769;SDS011;36740;48.698;11.472;2022-07-29T14:46:20;7.70;;;3.10;;
50769;SDS011;36740;48.698;11.472;2022-07-29T14:49:05;7.57;;;3.42;;
50769;SDS011;36740;48.698;11.472;2022-07-29T14:51:51;5.53;;;4.05;;
50769;SDS011;36740;48.698;11.472;2022-07-29T14:54:37;5.25;;;3.53;;
50769;SDS011;36740;48.698;11.472;2022-07-29T14:57:23;4.13;;;3.17;;
50769;SDS011;36740;48.698;11.472;2022-07-29T15:00:09;4.65;;;3.58;;
50769;SDS011;36740;48.698;11.472;2022-07-29T15:02:56;6.07;;;3.22;;
50769;SDS011;36740;48.698;11.472;2022-07-29T15:05:42;4.85;;;3.45;;
50769;SDS011;36740;48.698;11.472;2022-07-29T15:08:27;6.03;;;3.88;;
50769;SDS011;36740;48.698;11.472;2022-07-29T15:11:15;7.43;;;4.43;;
50769;SDS011;36740;48.698;11.472;2022-07-29T15:14:00;8.02;;;4.25;;
50769;SDS011;36740;48.698;11.472;2022-07-29T15:16:46;6.10;;;4.15;;
50769;SDS011;36740;48.698;11.472;2022-07-29T15:19:32;6.43;;;3.38;;
50769;SDS011;36740;48.698;11.472;2022-07-29T15:22:18;5.63;;;3.47;;
50769;SDS011;36740;48.698;11.472;2022-07-29T15:25:04;5.38;;;3.20;;
50769;SDS011;36740;48.698;11.472;2022-07-29T15:27:50;5.78;;;3.75;;
50769;SDS011;36740;48.698;11.472;2022-07-29T15:30:35;4.82;;;2.88;;
50769;SDS011;36740;48.698;11.472;2022-07-29T15:33:25;5.45;;;3.22;;
50769;SDS011;36740;48.698;11.472;2022-07-29T15:36:11;5.65;;;3.42;;
50769;SDS011;36740;48.698;11.472;2022-07-29T15:38:57;6.13;;;3.60;;
50769;SDS011;36740;48.698;11.472;2022-07-29T15:41:45;4.57;;;3.10;;
50769;SDS011;36740;48.698;11.472;2022-07-29T15:44:31;5.57;;;3.13;;
50769;SDS011;36740;48.698;11.472;2022-07-29T15:47:17;6.10;;;4.07;;
50769;SDS011;36740;48.698;11.472;2022-07-29T15:50:03;9.10;;;4.38;;
50769;SDS011;36740;48.698;11.472;2022-07-29T15:52:48;6.55;;;3.55;;
50769;SDS011;36740;48.698;11.472;2022-07-29T15:55:34;7.13;;;3.97;;
50769;SDS011;36740;48.698;11.472;2022-07-29T15:58:20;5.38;;;3.05;;
50769;SDS011;36740;48.698;11.472;2022-07-29T16:01:05;7.32;;;3.40;;
50769;SDS011;36740;48.698;11.472;2022-07-29T16:03:51;7.25;;;4.00;;
50769;SDS011;36740;48.698;11.472;2022-07-29T16:06:37;5.18;;;3.60;;
50769;SDS011;36740;48.698;11.472;2022-07-29T16:09:22;7.63;;;3.58;;
50769;SDS011;36740;48.698;11.472;2022-07-29T16:12:08;3.55;;;3.00;;
50769;SDS011;36740;48.698;11.472;2022-07-29T16:14:54;8.43;;;3.10;;
50769;SDS011;36740;48.698;11.472;2022-07-29T16:17:40;3.80;;;2.72;;
50769;SDS011;36740;48.698;11.472;2022-07-29T16:20:25;4.75;;;2.95;;
50769;SDS011;36740;48.698;11.472;2022-07-29T16:23:11;5.63;;;1.77;;
50769;SDS011;36740;48.698;11.472;2022-07-29T16:25:57;3.85;;;2.25;;
50769;SDS011;36740;48.698;11.472;2022-07-29T16:28:42;4.45;;;2.03;;
50769;SDS011;36740;48.698;11.472;2022-07-29T16:31:28;3.80;;;2.25;;
50769;SDS011;36740;48.698;11.472;2022-07-29T16:34:14;4.78;;;2.40;;
50769;SDS011;36740;48.698;11.472;2022-07-29T16:36:59;2.70;;;2.17;;
50769;SDS011;36740;48.698;11.472;2022-07-29T16:39:45;2.58;;;2.22;;
50769;SDS011;36740;48.698;11.472;2022-07-29T16:42:31;4.55;;;2.20;;
50769;SDS011;36740;48.698;11.472;2022-07-29T16:45:19;2.33;;;2.10;;
50769;SDS011;36740;48.698;11.472;2022-07-29T16:48:05;2.75;;;1.75;;
50769;SDS011;36740;48.698;11.472;2022-07-29T16:50:51;4.15;;;2.00;;
50769;SDS011;36740;48.698;11.472;2022-07-29T16:53:36;2.80;;;1.95;;
50769;SDS011;36740;48.698;11.472;2022-07-29T16:56:22;1.73;;;1.60;;
50769;SDS011;36740;48.698;11.472;2022-07-29T16:59:09;6.20;;;4.00;;
50769;SDS011;36740;48.698;11.472;2022-07-29T17:01:54;11.50;;;4.45;;
50769;SDS011;36740;48.698;11.472;2022-07-29T17:04:40;6.38;;;2.33;;
50769;SDS011;36740;48.698;11.472;2022-07-29T17:07:26;7.38;;;2.78;;